createdAt,value
2023-02-22T00:00:00.234Z,90
2023-02-22T00:05:00.259Z,91
2023-02-22T00:10:00.228Z,91
2023-02-22T00:15:00.240Z,91
2023-02-22T00:20:00.246Z,91
2023-02-22T00:25:00.227Z,91
2023-02-22T00:30:00.233Z,91
2023-02-22T00:35:00.235Z,90
2023-02-22T00:40:00.228Z,90
2023-02-22T00:45:00.237Z,89
2023-02-22T00:50:00.240Z,89
2023-02-22T00:55:00.245Z,89
2023-02-22T01:00:00.285Z,90
2023-02-22T01:05:00.233Z,90
2023-02-22T01:10:00.233Z,90
2023-02-22T01:15:00.225Z,89
2023-02-22T01:20:00.235Z,89
2023-02-22T01:25:00.261Z,89
2023-02-22T01:30:00.233Z,89
2023-02-22T01:35:00.225Z,89
2023-02-22T01:40:00.230Z,89
2023-02-22T01:45:00.234Z,89
2023-02-22T01:50:00.220Z,89
2023-02-22T01:55:00.224Z,89
2023-02-22T02:00:00.279Z,89
2023-02-22T02:05:00.287Z,90
2023-02-22T02:10:00.222Z,90
2023-02-22T02:15:00.222Z,90
2023-02-22T02:20:00.223Z,90
2023-02-22T02:25:00.255Z,90
2023-02-22T02:30:00.225Z,90
2023-02-22T02:35:00.233Z,90
2023-02-22T02:40:00.298Z,90
2023-02-22T02:45:00.235Z,90
2023-02-22T02:55:00.238Z,90
2023-02-22T03:00:00.235Z,90
2023-02-22T03:05:00.229Z,90
2023-02-22T03:10:00.227Z,90
2023-02-22T03:15:00.202Z,90
2023-02-22T03:20:00.226Z,90
2023-02-22T03:25:00.227Z,90
2023-02-22T03:30:00.230Z,90
2023-02-22T03:35:00.260Z,90
2023-02-22T03:40:00.227Z,90
2023-02-22T03:45:00.223Z,90
2023-02-22T03:50:00.240Z,90
2023-02-22T03:55:00.234Z,90
2023-02-22T04:00:00.384Z,90
2023-02-22T04:05:00.325Z,90
2023-02-22T04:10:00.232Z,90
2023-02-22T04:15:00.272Z,90
2023-02-22T04:20:00.277Z,90
2023-02-22T04:25:00.237Z,90
2023-02-22T04:30:00.224Z,90
2023-02-22T04:35:00.232Z,90
2023-02-22T04:40:00.236Z,91
2023-02-22T04:45:00.220Z,91
2023-02-22T04:50:00.224Z,91
2023-02-22T04:55:00.228Z,91
2023-02-22T05:00:00.283Z,91
2023-02-22T05:05:00.382Z,91
2023-02-22T05:10:00.224Z,92
2023-02-22T05:15:00.227Z,92
2023-02-22T05:20:00.224Z,92
2023-02-22T05:25:00.243Z,92
2023-02-22T05:30:00.232Z,92
2023-02-22T05:35:00.242Z,93
2023-02-22T05:40:00.225Z,93
2023-02-22T05:45:00.229Z,93
2023-02-22T05:50:00.226Z,93
2023-02-22T05:55:00.253Z,93
2023-02-22T06:00:00.224Z,93
2023-02-22T06:05:00.232Z,93
2023-02-22T06:10:00.223Z,94
2023-02-22T06:15:00.223Z,94
2023-02-22T06:20:00.242Z,94
2023-02-22T06:25:00.223Z,94
2023-02-22T06:30:00.244Z,94
2023-02-22T06:35:00.239Z,94
2023-02-22T06:40:04.957Z,94
2023-02-22T06:45:00.224Z,94
2023-02-22T06:50:00.230Z,95
2023-02-22T06:55:00.239Z,95
2023-02-22T07:00:00.226Z,95
2023-02-22T07:05:00.224Z,95
2023-02-22T07:10:00.221Z,95
2023-02-22T07:15:00.235Z,95
2023-02-22T07:20:00.234Z,95
2023-02-22T07:25:00.222Z,95
2023-02-22T07:30:00.240Z,95
2023-02-22T07:35:00.238Z,95
2023-02-22T07:40:00.215Z,96
2023-02-22T07:45:00.229Z,96
2023-02-22T07:50:00.227Z,96
2023-02-22T07:55:00.232Z,97
2023-02-22T08:00:00.250Z,97
2023-02-22T08:05:00.238Z,97
2023-02-22T08:10:00.222Z,97
2023-02-22T08:15:00.237Z,97
2023-02-22T08:20:00.240Z,97
2023-02-22T08:25:00.263Z,98
2023-02-22T08:30:00.233Z,98
2023-02-22T08:35:00.234Z,98
2023-02-22T08:40:00.244Z,98
2023-02-22T08:45:00.229Z,98
2023-02-22T08:50:00.218Z,98
2023-02-22T08:55:00.211Z,98
2023-02-22T09:00:00.225Z,98
2023-02-22T09:05:00.220Z,98
2023-02-22T09:10:00.268Z,98
2023-02-22T09:15:00.228Z,98
2023-02-22T09:20:00.335Z,98
2023-02-22T09:25:02.512Z,98
2023-02-22T09:30:00.225Z,98
2023-02-22T09:35:00.215Z,97
2023-02-22T09:40:00.319Z,97
2023-02-22T09:45:00.232Z,97
2023-02-22T09:50:00.235Z,97
2023-02-22T09:55:00.222Z,96
2023-02-22T10:05:00.339Z,95
2023-02-22T10:10:00.220Z,93
2023-02-22T10:15:00.231Z,93
2023-02-22T10:20:00.219Z,91
2023-02-22T10:25:00.215Z,91
2023-02-22T10:30:00.225Z,91
2023-02-22T10:35:00.237Z,91
2023-02-22T10:40:00.228Z,90
2023-02-22T10:45:00.247Z,89
2023-02-22T10:50:00.224Z,89
2023-02-22T10:55:14.279Z,88
2023-02-22T11:00:00.231Z,88
2023-02-22T11:05:00.259Z,87
2023-02-22T11:10:00.222Z,87
2023-02-22T11:15:00.237Z,87
2023-02-22T11:20:00.268Z,86
2023-02-22T11:25:00.221Z,87
2023-02-22T11:30:00.261Z,86
2023-02-22T11:35:08.622Z,86
2023-02-22T11:40:00.219Z,85
2023-02-22T11:45:00.238Z,84
2023-02-22T11:50:00.222Z,85
2023-02-22T11:55:00.221Z,84
2023-02-22T12:00:00.233Z,84
2023-02-22T12:05:00.367Z,82
2023-02-22T12:10:00.217Z,82
2023-02-22T12:15:00.230Z,83
2023-02-22T12:20:00.236Z,84
2023-02-22T12:25:08.991Z,84
2023-02-22T12:30:00.214Z,82
2023-02-22T12:35:00.237Z,83
2023-02-22T12:40:00.346Z,83
2023-02-22T12:45:00.243Z,83
2023-02-22T12:50:00.216Z,83
2023-02-22T12:55:00.237Z,81
2023-02-22T13:00:00.257Z,81
2023-02-22T13:05:00.281Z,80
2023-02-22T13:10:00.221Z,81
2023-02-22T13:15:00.238Z,80
2023-02-22T13:20:00.228Z,80
2023-02-22T13:25:00.231Z,81
2023-02-22T13:30:00.225Z,79
2023-02-22T13:35:00.256Z,79
2023-02-22T13:40:00.223Z,79
2023-02-22T13:45:00.235Z,79
2023-02-22T13:50:00.236Z,79
2023-02-22T13:55:00.224Z,79
2023-02-22T14:00:00.218Z,79
2023-02-22T14:05:00.313Z,78
2023-02-22T14:10:00.221Z,76
2023-02-22T14:15:00.234Z,74
2023-02-22T14:20:00.226Z,74
2023-02-22T14:25:00.212Z,74
2023-02-22T14:30:00.261Z,74
2023-02-22T14:35:00.241Z,76
2023-02-22T14:40:00.221Z,75
2023-02-22T14:45:00.221Z,76
2023-02-22T14:50:00.220Z,77
2023-02-22T14:55:00.206Z,77
2023-02-22T15:00:00.217Z,77
2023-02-22T15:05:00.396Z,78
2023-02-22T15:10:00.219Z,77
2023-02-22T15:15:00.218Z,78
2023-02-22T15:20:00.221Z,78
2023-02-22T15:25:00.225Z,78
2023-02-22T15:30:00.238Z,79
2023-02-22T15:35:00.226Z,79
2023-02-22T15:40:00.227Z,79
2023-02-22T15:45:00.295Z,81
2023-02-22T15:50:00.349Z,80
2023-02-22T15:55:00.241Z,82
2023-02-22T16:00:00.353Z,82
2023-02-22T16:05:00.681Z,83
2023-02-22T16:10:00.305Z,83
2023-02-22T16:15:00.249Z,84
2023-02-22T16:20:00.254Z,84
2023-02-22T16:25:00.226Z,84
2023-02-22T16:30:00.231Z,83
2023-02-22T16:35:00.306Z,83
2023-02-22T16:40:00.223Z,83
2023-02-22T16:45:00.229Z,83
2023-02-22T16:50:00.229Z,84
2023-02-22T16:55:00.240Z,84
2023-02-22T17:00:00.229Z,83
2023-02-22T17:05:00.232Z,84
2023-02-22T17:10:00.239Z,83
2023-02-22T17:15:00.234Z,83
2023-02-22T17:20:00.222Z,84
2023-02-22T17:25:00.236Z,84
2023-02-22T17:30:00.224Z,85
2023-02-22T17:35:00.230Z,85
2023-02-22T17:40:00.221Z,85
2023-02-22T17:45:00.224Z,85
2023-02-22T17:50:00.213Z,85
2023-02-22T17:55:00.231Z,85
2023-02-22T18:00:00.230Z,85
2023-02-22T18:05:00.235Z,86
2023-02-22T18:10:00.255Z,86
2023-02-22T18:15:00.235Z,86
2023-02-22T18:20:00.222Z,86
2023-02-22T18:25:01.679Z,86
2023-02-22T18:30:00.212Z,86
2023-02-22T18:35:00.260Z,86
2023-02-22T18:40:00.229Z,86
2023-02-22T18:45:00.223Z,86
2023-02-22T18:50:00.205Z,86
2023-02-22T18:55:00.238Z,87
2023-02-22T19:00:00.236Z,87
2023-02-22T19:05:00.227Z,87
2023-02-22T19:10:00.229Z,87
2023-02-22T19:15:00.226Z,87
2023-02-22T19:20:00.234Z,87
2023-02-22T19:25:00.244Z,87
2023-02-22T19:30:00.256Z,87
2023-02-22T19:35:00.236Z,87
2023-02-22T19:40:00.243Z,87
2023-02-22T19:45:00.231Z,87
2023-02-22T19:50:00.468Z,88
2023-02-22T19:55:00.239Z,88
2023-02-22T20:00:00.240Z,88
2023-02-22T20:05:00.225Z,88
2023-02-22T20:10:00.207Z,88
2023-02-22T20:15:00.222Z,88
2023-02-22T20:20:00.222Z,88
2023-02-22T20:25:00.228Z,88
2023-02-22T20:30:00.211Z,88
2023-02-22T20:35:00.264Z,88
2023-02-22T20:40:00.239Z,88
2023-02-22T20:45:00.226Z,88
2023-02-22T20:50:00.225Z,88
2023-02-22T20:55:00.234Z,88
2023-02-22T21:00:00.235Z,89
2023-02-22T21:05:00.271Z,89
2023-02-22T21:10:00.216Z,89
2023-02-22T21:15:00.228Z,89
2023-02-22T21:20:00.221Z,89
2023-02-22T21:25:00.226Z,89
2023-02-22T21:30:00.226Z,90
2023-02-22T21:35:00.225Z,90
2023-02-22T21:40:00.234Z,90
2023-02-22T21:45:00.255Z,90
2023-02-22T21:50:00.241Z,90
2023-02-22T21:55:00.240Z,90
2023-02-22T22:00:00.228Z,90
2023-02-22T22:05:00.223Z,90
2023-02-22T22:10:00.229Z,90
2023-02-22T22:15:00.225Z,90
2023-02-22T22:20:00.262Z,91
2023-02-22T22:25:00.248Z,91
2023-02-22T22:30:00.221Z,91
2023-02-22T22:35:00.224Z,91
2023-02-22T22:40:00.233Z,91
2023-02-22T22:45:00.208Z,91
2023-02-22T22:50:00.220Z,91
2023-02-22T22:55:00.223Z,91
2023-02-22T23:00:00.222Z,91
2023-02-22T23:05:00.213Z,91
2023-02-22T23:10:00.217Z,91
2023-02-22T23:15:00.222Z,91
2023-02-22T23:20:00.238Z,91
2023-02-22T23:25:00.239Z,91
2023-02-22T23:30:00.221Z,91
2023-02-22T23:35:00.220Z,91
2023-02-22T23:40:00.211Z,91
2023-02-22T23:45:00.220Z,91
2023-02-22T23:50:00.241Z,91
2023-02-22T23:55:00.225Z,91
